Time;durP1;ratioP1;P1;durP2;ratioP2;P2;SDS_P1;SDS_P2;PMS_P1;PMS_P2;Temp;Humidity;BMP_temperature;BMP_pressure;BME280_temperature;BME280_humidity;BME280_pressure;Samples;Min_cycle;Max_cycle;Signal;HPM_P1;HPM_P2
2021/05/22 00:01:22;;;;;;;1.90;0.88;;;11.40;99.90;;;;;;4993680;28;20172;-78
2021/05/22 00:03:48;;;;;;;3.25;0.80;;;11.30;99.90;;;;;;4994045;28;20717;-78
2021/05/22 00:06:14;;;;;;;1.83;0.90;;;11.40;99.90;;;;;;4993480;28;20169;-78
2021/05/22 00:08:40;;;;;;;1.77;0.82;;;11.30;99.90;;;;;;4993688;28;20267;-78
2021/05/22 00:11:05;;;;;;;2.97;0.57;;;11.40;99.90;;;;;;4994093;28;20196;-78
2021/05/22 00:13:31;;;;;;;7.53;0.80;;;11.40;99.90;;;;;;4993770;28;20647;-78
2021/05/22 00:15:56;;;;;;;5.00;1.00;;;11.50;99.90;;;;;;4993872;28;20165;-80
2021/05/22 00:18:22;;;;;;;0.73;0.50;;;11.50;99.90;;;;;;4993976;28;20581;-79
2021/05/22 00:20:47;;;;;;;2.38;0.80;;;11.40;99.90;;;;;;4992138;28;20527;-77
2021/05/22 00:23:14;;;;;;;2.38;0.75;;;11.40;99.90;;;;;;4993601;28;20510;-79
2021/05/22 00:25:42;;;;;;;5.05;1.27;;;11.40;99.90;;;;;;4993784;28;20219;-79
2021/05/22 00:28:08;;;;;;;5.68;0.73;;;11.50;99.90;;;;;;4993290;28;20587;-78
2021/05/22 00:30:42;;;;;;;4.60;0.57;;;11.50;99.90;;;;;;4993467;28;20161;-80
2021/05/22 00:33:08;;;;;;;1.77;0.70;;;11.50;99.90;;;;;;4993366;28;20200;-77
2021/05/22 00:35:34;;;;;;;5.32;1.25;;;11.50;99.90;;;;;;4993579;28;20663;-78
2021/05/22 00:37:59;;;;;;;4.32;0.75;;;11.50;99.90;;;;;;4993369;28;20196;-77
2021/05/22 00:40:28;;;;;;;1.05;0.60;;;11.60;99.90;;;;;;4992238;28;20184;-78
2021/05/22 00:42:54;;;;;;;2.17;0.95;;;11.60;99.90;;;;;;4993169;28;20175;-79
2021/05/22 00:45:21;;;;;;;3.42;1.17;;;11.60;99.90;;;;;;4993338;28;20169;-78
2021/05/22 00:47:56;;;;;;;1.38;0.60;;;11.60;99.90;;;;;;4993248;28;20209;-78
2021/05/22 00:50:32;;;;;;;4.22;0.90;;;11.60;99.90;;;;;;4993431;28;20161;-78
2021/05/22 00:52:58;;;;;;;5.65;0.52;;;11.70;99.90;;;;;;4992874;28;20211;-78
2021/05/22 00:55:25;;;;;;;4.93;0.70;;;11.60;99.90;;;;;;4992267;28;20169;-78
2021/05/22 00:57:52;;;;;;;0.80;0.50;;;11.60;99.90;;;;;;4993503;28;20641;-78
2021/05/22 01:00:28;;;;;;;1.13;1.00;;;11.60;99.90;;;;;;4991979;28;20185;-79
2021/05/22 01:02:54;;;;;;;2.88;0.65;;;11.50;99.90;;;;;;4993433;28;20165;-79
2021/05/22 01:05:23;;;;;;;2.75;0.50;;;11.50;99.90;;;;;;4994290;28;20189;-78
2021/05/22 01:07:49;;;;;;;2.13;0.68;;;11.50;99.90;;;;;;4994017;28;20283;-77
2021/05/22 01:10:16;;;;;;;7.93;0.95;;;11.60;99.90;;;;;;4994486;28;20165;-78
2021/05/22 01:12:46;;;;;;;5.38;0.70;;;11.70;99.90;;;;;;5010716;28;20227;-78
2021/05/22 01:15:15;;;;;;;1.08;0.45;;;11.60;99.90;;;;;;4994797;28;20165;-78
2021/05/22 01:17:46;;;;;;;1.58;0.80;;;11.70;99.90;;;;;;4975961;28;20169;-79
2021/05/22 01:20:37;;;;;;;1.48;0.70;;;11.80;99.90;;;;;;4994635;28;20200;-78
2021/05/22 01:23:07;;;;;;;6.35;0.80;;;11.80;99.90;;;;;;4994253;28;20525;-79
2021/05/22 01:25:39;;;;;;;6.45;0.90;;;11.80;99.90;;;;;;4993086;28;20161;-78
2021/05/22 01:28:07;;;;;;;4.30;0.60;;;11.80;99.90;;;;;;4993636;28;20205;-78
2021/05/22 01:30:34;;;;;;;6.45;0.60;;;11.70;99.90;;;;;;4986660;28;20173;-77
2021/05/22 01:33:02;;;;;;;3.22;0.75;;;11.80;99.90;;;;;;4973544;28;20753;-78
2021/05/22 01:35:28;;;;;;;2.05;0.60;;;11.70;99.90;;;;;;4973436;28;20170;-78
2021/05/22 01:37:53;;;;;;;2.95;0.88;;;11.70;99.90;;;;;;4973432;28;20190;-79
2021/05/22 01:40:19;;;;;;;3.78;0.98;;;11.80;99.90;;;;;;4973774;28;20182;-78
2021/05/22 01:42:45;;;;;;;5.15;0.80;;;11.70;99.90;;;;;;4973989;28;20166;-78
2021/05/22 01:45:15;;;;;;;5.40;0.95;;;11.60;99.90;;;;;;4982040;28;20193;-77
2021/05/22 01:47:43;;;;;;;5.13;0.77;;;11.60;99.90;;;;;;4991001;28;20205;-78
2021/05/22 01:50:11;;;;;;;4.75;0.80;;;11.60;99.90;;;;;;4987748;28;20242;-77
2021/05/22 01:52:41;;;;;;;2.95;0.90;;;11.60;99.90;;;;;;4983658;28;20699;-78
2021/05/22 01:55:08;;;;;;;4.32;1.02;;;11.60;99.90;;;;;;4972485;28;20212;-78
2021/05/22 01:57:34;;;;;;;1.73;1.00;;;11.60;99.90;;;;;;4972946;28;20520;-80
2021/05/22 02:00:07;;;;;;;10.50;1.00;;;11.50;99.90;;;;;;4972636;28;20185;-78
2021/05/22 02:02:34;;;;;;;5.07;0.80;;;11.50;99.90;;;;;;4973031;28;20197;-78
2021/05/22 02:05:02;;;;;;;4.00;0.98;;;11.60;99.90;;;;;;4972183;28;20767;-78
2021/05/22 02:07:30;;;;;;;8.13;0.90;;;11.60;99.90;;;;;;4972998;28;20205;-78
2021/05/22 02:09:59;;;;;;;3.35;1.05;;;11.60;99.90;;;;;;4972308;28;20174;-78
2021/05/22 02:12:26;;;;;;;4.63;1.05;;;11.70;99.90;;;;;;4973325;28;20623;-78
2021/05/22 02:14:53;;;;;;;6.85;0.73;;;11.70;99.90;;;;;;4972981;28;20626;-78
2021/05/22 02:17:24;;;;;;;6.90;0.90;;;11.60;99.90;;;;;;4971889;28;20947;-77
2021/05/22 02:19:51;;;;;;;6.13;1.10;;;11.60;99.90;;;;;;4969698;28;20170;-78
2021/05/22 02:22:23;;;;;;;3.20;1.20;;;11.70;99.90;;;;;;4971217;28;20712;-77
2021/05/22 02:24:53;;;;;;;2.22;0.73;;;11.60;99.90;;;;;;4971325;28;20170;-77
2021/05/22 02:27:20;;;;;;;7.93;0.80;;;11.60;99.90;;;;;;4969747;28;20257;-78
2021/05/22 02:29:47;;;;;;;10.02;0.80;;;11.60;99.90;;;;;;4973094;28;20186;-77
2021/05/22 02:32:14;;;;;;;2.72;1.13;;;11.60;99.90;;;;;;4975255;28;20220;-77
2021/05/22 02:34:51;;;;;;;10.77;1.15;;;11.50;99.90;;;;;;4976785;28;20267;-77
2021/05/22 02:37:20;;;;;;;4.20;0.80;;;11.60;99.90;;;;;;4976524;28;20228;-77
2021/05/22 02:39:52;;;;;;;8.52;0.90;;;11.70;99.90;;;;;;4975932;28;20194;-78
2021/05/22 02:42:19;;;;;;;4.22;1.10;;;11.70;99.90;;;;;;4976279;28;20204;-77
2021/05/22 02:44:47;;;;;;;9.40;1.15;;;11.70;99.90;;;;;;4975978;28;20169;-78
2021/05/22 02:47:14;;;;;;;2.78;1.13;;;11.70;99.90;;;;;;4976404;28;20638;-77
2021/05/22 02:49:42;;;;;;;4.63;1.40;;;11.70;99.90;;;;;;4976081;28;20198;-77
2021/05/22 02:52:10;;;;;;;1.92;0.75;;;11.80;99.90;;;;;;4975083;28;20205;-77
2021/05/22 02:54:39;;;;;;;2.35;0.88;;;11.90;99.90;;;;;;4976036;28;20229;-78
2021/05/22 02:57:07;;;;;;;2.40;0.90;;;11.80;99.90;;;;;;4976059;28;20166;-77
2021/05/22 02:59:34;;;;;;;1.30;0.75;;;11.70;99.90;;;;;;4976631;28;20205;-78
2021/05/22 03:02:01;;;;;;;6.70;0.80;;;11.70;99.90;;;;;;4976081;28;20170;-77
2021/05/22 03:04:28;;;;;;;6.65;0.98;;;11.80;99.90;;;;;;4975954;28;20170;-78
2021/05/22 03:06:53;;;;;;;9.20;1.10;;;11.70;99.90;;;;;;4975768;28;20693;-77
2021/05/22 03:09:19;;;;;;;4.93;1.25;;;11.70;99.90;;;;;;4974185;28;20217;-77
2021/05/22 03:11:45;;;;;;;6.38;1.20;;;11.80;99.90;;;;;;4975800;28;20166;-80
2021/05/22 03:14:10;;;;;;;6.50;1.65;;;11.80;99.90;;;;;;4978301;28;20184;-79
2021/05/22 03:16:36;;;;;;;4.72;1.40;;;11.70;99.90;;;;;;4977467;28;20571;-78
2021/05/22 03:19:02;;;;;;;3.20;1.40;;;11.70;99.90;;;;;;4976096;28;20190;-78
2021/05/22 03:21:28;;;;;;;6.85;1.45;;;11.70;99.90;;;;;;4975600;28;20174;-78
2021/05/22 03:23:53;;;;;;;3.30;1.10;;;11.80;99.90;;;;;;4975773;28;20609;-77
2021/05/22 03:26:19;;;;;;;9.98;0.85;;;11.80;99.90;;;;;;4976190;28;20173;-78
2021/05/22 03:28:45;;;;;;;10.38;1.55;;;11.80;99.90;;;;;;4973877;28;20224;-78
2021/05/22 03:31:12;;;;;;;4.93;1.17;;;11.80;99.90;;;;;;4977338;28;20261;-78
2021/05/22 03:33:38;;;;;;;3.67;1.25;;;11.90;99.90;;;;;;4977083;28;20189;-79
2021/05/22 03:36:04;;;;;;;8.07;1.00;;;11.90;99.90;;;;;;4977972;28;20257;-79
2021/05/22 03:38:30;;;;;;;2.88;0.95;;;11.70;99.90;;;;;;4975721;28;20232;-79
2021/05/22 03:40:56;;;;;;;8.52;1.15;;;11.60;99.90;;;;;;4975077;28;20210;-79
2021/05/22 03:43:21;;;;;;;9.32;1.13;;;11.70;99.90;;;;;;4976615;28;20181;-80
2021/05/22 03:45:47;;;;;;;7.13;1.20;;;11.70;99.90;;;;;;4977433;28;20257;-80
2021/05/22 03:48:13;;;;;;;6.82;1.30;;;11.70;99.90;;;;;;4976841;28;20681;-78
2021/05/22 03:50:38;;;;;;;3.63;1.00;;;11.70;99.90;;;;;;4976543;28;20188;-78
2021/05/22 03:53:04;;;;;;;12.77;1.83;;;11.80;99.90;;;;;;4975782;28;20702;-78
2021/05/22 03:55:29;;;;;;;12.95;1.27;;;11.70;99.90;;;;;;4976528;28;20524;-78
2021/05/22 03:57:55;;;;;;;3.63;1.27;;;11.80;99.90;;;;;;4977587;28;20186;-78
2021/05/22 04:00:21;;;;;;;5.18;1.25;;;11.70;99.90;;;;;;4977925;28;20224;-78
2021/05/22 04:02:47;;;;;;;3.65;0.95;;;11.70;99.90;;;;;;4977969;28;20533;-78
2021/05/22 04:05:12;;;;;;;11.75;1.10;;;11.70;99.90;;;;;;4976175;28;20178;-78
2021/05/22 04:07:38;;;;;;;4.25;1.20;;;11.80;99.90;;;;;;4975604;28;20202;-79
2021/05/22 04:10:05;;;;;;;4.75;1.25;;;11.70;99.90;;;;;;4976101;28;20204;-79
2021/05/22 04:12:30;;;;;;;2.47;0.90;;;11.70;99.90;;;;;;4975831;28;20173;-78
2021/05/22 04:14:56;;;;;;;8.93;1.38;;;11.80;99.90;;;;;;4975321;28;20170;-78
2021/05/22 04:17:22;;;;;;;4.22;1.17;;;11.80;99.90;;;;;;4975518;28;20166;-79
2021/05/22 04:19:47;;;;;;;3.75;1.13;;;11.70;99.90;;;;;;4975342;28;20625;-78
2021/05/22 04:22:14;;;;;;;4.97;1.10;;;11.70;99.90;;;;;;4974179;28;20181;-79
2021/05/22 04:24:39;;;;;;;2.20;1.10;;;11.70;99.90;;;;;;4976382;28;20158;-77
2021/05/22 04:27:05;;;;;;;7.63;1.00;;;11.70;99.90;;;;;;4973709;28;20261;-79
2021/05/22 04:29:31;;;;;;;4.82;1.23;;;11.80;99.90;;;;;;4975689;28;20241;-79
2021/05/22 04:31:57;;;;;;;5.65;1.42;;;11.90;99.90;;;;;;4976360;28;20165;-78
2021/05/22 04:34:23;;;;;;;3.15;1.23;;;11.90;99.90;;;;;;4975533;28;20170;-80
2021/05/22 04:36:48;;;;;;;4.10;1.40;;;11.80;99.90;;;;;;4974169;28;20249;-78
2021/05/22 04:39:14;;;;;;;5.90;1.20;;;11.70;99.90;;;;;;4975801;28;20301;-79
2021/05/22 04:41:40;;;;;;;4.70;1.20;;;11.60;99.90;;;;;;4974723;28;20254;-78
2021/05/22 04:44:06;;;;;;;3.83;1.23;;;11.70;99.90;;;;;;4974684;28;20174;-77
2021/05/22 04:46:31;;;;;;;4.15;1.45;;;11.70;99.90;;;;;;4974176;28;20166;-77
2021/05/22 04:48:57;;;;;;;9.23;2.08;;;11.70;99.90;;;;;;4973958;28;20696;-78
2021/05/22 04:51:24;;;;;;;9.93;1.15;;;11.70;99.90;;;;;;4974049;28;20205;-77
2021/05/22 04:53:50;;;;;;;3.55;1.02;;;11.70;99.90;;;;;;4974614;28;20176;-78
2021/05/22 04:56:16;;;;;;;4.88;0.80;;;11.80;99.90;;;;;;4976555;28;20254;-79
2021/05/22 04:58:41;;;;;;;6.38;1.10;;;11.90;99.90;;;;;;4988824;28;20236;-77
2021/05/22 05:01:07;;;;;;;3.10;1.13;;;11.90;99.90;;;;;;4996409;28;20229;-78
2021/05/22 05:03:32;;;;;;;6.72;1.15;;;11.90;99.90;;;;;;4995524;28;20201;-78
2021/05/22 05:05:58;;;;;;;2.83;1.00;;;11.80;99.90;;;;;;4994662;28;20170;-78
2021/05/22 05:08:24;;;;;;;2.72;1.05;;;11.80;99.90;;;;;;4977479;28;20221;-77
2021/05/22 05:10:50;;;;;;;4.50;1.13;;;11.70;99.90;;;;;;4986523;28;20153;-79
2021/05/22 05:13:17;;;;;;;2.83;1.17;;;11.70;99.90;;;;;;4991258;28;20228;-79
2021/05/22 05:15:43;;;;;;;2.33;0.98;;;11.60;99.90;;;;;;4975302;28;20170;-79
2021/05/22 05:18:10;;;;;;;6.72;1.20;;;11.60;99.90;;;;;;4974081;28;20190;-79
2021/05/22 05:20:35;;;;;;;10.23;1.50;;;11.60;99.90;;;;;;4974654;28;20666;-78
2021/05/22 05:23:01;;;;;;;4.50;1.23;;;11.60;99.90;;;;;;4973969;28;20216;-78
2021/05/22 05:25:26;;;;;;;2.55;1.10;;;11.80;99.90;;;;;;4973056;28;20646;-78
2021/05/22 05:27:52;;;;;;;3.17;1.13;;;11.80;99.90;;;;;;4974888;28;20567;-79
2021/05/22 05:30:18;;;;;;;2.35;0.90;;;11.70;99.90;;;;;;4976124;28;20181;-79
2021/05/22 05:32:44;;;;;;;6.68;1.35;;;11.70;99.90;;;;;;4974312;28;20626;-79
2021/05/22 05:35:10;;;;;;;6.85;1.20;;;11.60;99.90;;;;;;4976169;28;20174;-79
2021/05/22 05:37:37;;;;;;;9.27;1.33;;;11.80;99.90;;;;;;4976256;28;20170;-79
2021/05/22 05:40:04;;;;;;;18.38;1.52;;;11.80;99.90;;;;;;4973860;28;20174;-79
2021/05/22 05:42:29;;;;;;;6.05;1.55;;;11.70;99.90;;;;;;4975158;28;20174;-79
2021/05/22 05:44:55;;;;;;;9.57;1.02;;;11.80;99.90;;;;;;4975426;28;20273;-80
2021/05/22 05:47:20;;;;;;;6.43;1.73;;;11.80;99.90;;;;;;4973805;28;20185;-79
2021/05/22 05:49:46;;;;;;;3.83;1.42;;;11.80;99.90;;;;;;4974669;28;20198;-78
2021/05/22 05:52:12;;;;;;;5.38;1.30;;;11.80;99.90;;;;;;4973656;28;20217;-79
2021/05/22 05:54:37;;;;;;;9.65;1.17;;;11.80;99.90;;;;;;4974726;28;20264;-78
2021/05/22 05:57:03;;;;;;;3.40;1.05;;;11.80;99.90;;;;;;4975373;28;20166;-79
2021/05/22 05:59:29;;;;;;;10.82;1.98;;;11.90;99.90;;;;;;4974262;28;20615;-78
2021/05/22 06:01:54;;;;;;;3.42;1.25;;;11.90;99.90;;;;;;4973275;28;20166;-79
2021/05/22 06:04:20;;;;;;;6.97;1.33;;;11.80;99.90;;;;;;4974872;28;20625;-79
2021/05/22 06:06:45;;;;;;;5.18;1.27;;;11.70;99.90;;;;;;4976545;28;20524;-79
2021/05/22 06:09:11;;;;;;;9.70;1.20;;;11.80;99.90;;;;;;4975277;28;20300;-78
2021/05/22 06:11:37;;;;;;;7.95;1.40;;;11.70;99.90;;;;;;4976479;28;20614;-80
2021/05/22 06:14:08;;;;;;;5.28;1.00;;;11.60;99.90;;;;;;4976622;28;20170;-79
2021/05/22 06:16:34;;;;;;;7.25;1.08;;;11.80;99.90;;;;;;4976734;28;20166;-79
2021/05/22 06:19:00;;;;;;;2.45;1.20;;;11.90;99.90;;;;;;4975229;28;20556;-80
2021/05/22 06:21:25;;;;;;;6.35;1.52;;;11.70;99.90;;;;;;4975336;28;20178;-79
2021/05/22 06:23:51;;;;;;;13.60;2.22;;;11.70;99.90;;;;;;4976386;28;20175;-80
2021/05/22 06:26:17;;;;;;;4.63;0.98;;;11.60;99.90;;;;;;4975174;28;20575;-79
2021/05/22 06:28:43;;;;;;;4.32;0.93;;;11.60;99.90;;;;;;4978021;28;20205;-79
2021/05/22 06:31:09;;;;;;;3.88;0.80;;;11.60;99.90;;;;;;4989696;28;20228;-79
2021/05/22 06:33:35;;;;;;;30.88;2.88;;;11.70;99.90;;;;;;4987880;28;20181;-78
2021/05/22 06:36:01;;;;;;;12.55;1.88;;;11.70;99.90;;;;;;4991706;28;20177;-80
2021/05/22 06:38:27;;;;;;;5.13;1.10;;;11.70;99.90;;;;;;4991730;28;20197;-79
2021/05/22 06:40:52;;;;;;;8.25;1.33;;;11.70;99.90;;;;;;4988745;28;20511;-78
2021/05/22 06:43:18;;;;;;;11.55;1.80;;;11.70;99.90;;;;;;4991012;28;20189;-79
2021/05/22 06:45:46;;;;;;;7.65;1.88;;;11.80;99.90;;;;;;4995807;28;20169;-80
2021/05/22 06:48:14;;;;;;;3.35;1.65;;;12.00;99.90;;;;;;4995196;28;20208;-81
2021/05/22 06:50:41;;;;;;;8.38;1.60;;;12.20;99.90;;;;;;4995411;28;20247;-79
2021/05/22 06:53:07;;;;;;;22.52;2.55;;;12.30;99.90;;;;;;4995390;28;20176;-78
2021/05/22 06:55:33;;;;;;;7.50;1.70;;;12.40;99.90;;;;;;4995290;28;20161;-78
2021/05/22 06:58:00;;;;;;;4.97;1.50;;;12.40;99.90;;;;;;4994757;28;20196;-78
2021/05/22 07:00:26;;;;;;;8.77;1.40;;;12.40;99.90;;;;;;4995162;28;20165;-77
2021/05/22 07:02:52;;;;;;;3.05;1.20;;;12.30;99.90;;;;;;4994835;28;20537;-78
2021/05/22 07:05:19;;;;;;;6.22;1.23;;;12.30;99.90;;;;;;4995010;28;20169;-77
2021/05/22 07:07:45;;;;;;;2.08;0.93;;;12.20;99.90;;;;;;5009699;28;20209;-81
2021/05/22 07:10:11;;;;;;;11.63;1.85;;;12.10;99.90;;;;;;4994776;28;20204;-78
2021/05/22 07:12:37;;;;;;;6.85;1.38;;;12.10;99.90;;;;;;4994664;28;20251;-77
2021/05/22 07:15:06;;;;;;;5.90;1.50;;;12.10;99.90;;;;;;4975153;28;20201;-77
2021/05/22 07:17:32;;;;;;;1.92;0.90;;;12.20;99.90;;;;;;4975455;28;20199;-77
2021/05/22 07:19:57;;;;;;;4.32;1.40;;;12.30;99.90;;;;;;4974961;28;20174;-78
2021/05/22 07:22:23;;;;;;;3.70;1.13;;;12.30;99.90;;;;;;4975092;28;20213;-78
2021/05/22 07:24:49;;;;;;;5.25;1.10;;;12.10;99.90;;;;;;4975694;28;20252;-78
2021/05/22 07:27:15;;;;;;;7.70;1.33;;;12.10;99.90;;;;;;4974914;28;20757;-78
2021/05/22 07:29:42;;;;;;;5.43;1.48;;;12.20;99.90;;;;;;4975267;28;20565;-79
2021/05/22 07:32:08;;;;;;;5.15;1.63;;;12.30;99.90;;;;;;4976269;28;20190;-79
2021/05/22 07:34:33;;;;;;;32.85;3.45;;;12.30;99.90;;;;;;4975338;28;20206;-80
2021/05/22 07:36:59;;;;;;;3.40;0.98;;;12.40;99.90;;;;;;4975018;28;20174;-80
2021/05/22 07:39:25;;;;;;;3.50;1.35;;;12.40;99.90;;;;;;4975141;28;20232;-80
2021/05/22 07:41:50;;;;;;;8.02;1.33;;;12.40;99.90;;;;;;4973372;28;20170;-77
2021/05/22 07:44:16;;;;;;;10.00;1.60;;;12.40;99.90;;;;;;4974030;28;20174;-79
2021/05/22 07:46:42;;;;;;;4.20;1.70;;;12.40;99.90;;;;;;4973989;28;20162;-78
2021/05/22 07:49:08;;;;;;;3.15;1.38;;;12.30;99.90;;;;;;4974437;28;20697;-78
2021/05/22 07:51:34;;;;;;;28.38;4.28;;;12.30;99.90;;;;;;4974907;28;20162;-77
2021/05/22 07:53:59;;;;;;;8.15;1.30;;;12.50;99.90;;;;;;4973133;28;20524;-77
2021/05/22 07:56:25;;;;;;;8.65;1.15;;;12.40;99.90;;;;;;4974562;28;20167;-78
2021/05/22 07:58:51;;;;;;;1.88;0.98;;;12.40;99.90;;;;;;4974560;28;20300;-78
2021/05/22 08:01:16;;;;;;;5.85;1.50;;;12.20;99.90;;;;;;4975015;28;20185;-80
2021/05/22 08:03:42;;;;;;;8.82;1.70;;;12.20;99.90;;;;;;4973146;28;20174;-79
2021/05/22 08:06:08;;;;;;;5.97;1.98;;;12.00;99.90;;;;;;4974623;28;20173;-78
2021/05/22 08:08:33;;;;;;;35.53;3.35;;;12.10;99.90;;;;;;4974428;28;20209;-79
2021/05/22 08:10:59;;;;;;;14.27;2.38;;;12.30;99.90;;;;;;4974343;28;20176;-79
2021/05/22 08:13:28;;;;;;;9.73;2.25;;;12.50;99.90;;;;;;4977855;28;20188;-80
2021/05/22 08:15:55;;;;;;;11.10;1.55;;;12.60;99.90;;;;;;4983654;28;20264;-79
2021/05/22 08:18:21;;;;;;;11.18;1.33;;;12.70;99.90;;;;;;4980739;28;20684;-78
2021/05/22 08:20:46;;;;;;;19.38;2.35;;;12.80;99.90;;;;;;4980553;28;20178;-77
2021/05/22 08:23:12;;;;;;;3.58;1.50;;;12.80;99.90;;;;;;4984980;28;20173;-80
2021/05/22 08:25:37;;;;;;;5.53;1.38;;;12.70;99.90;;;;;;5001000;28;20276;-80
2021/05/22 08:28:03;;;;;;;6.85;1.58;;;12.60;99.90;;;;;;4990032;28;20221;-79
2021/05/22 08:30:29;;;;;;;6.80;1.58;;;12.60;99.90;;;;;;4986919;28;20187;-80
2021/05/22 08:32:56;;;;;;;5.68;1.40;;;12.60;99.90;;;;;;4988228;28;20261;-79
2021/05/22 08:35:21;;;;;;;6.57;1.38;;;12.60;99.90;;;;;;4989167;28;20200;-79
2021/05/22 08:37:47;;;;;;;11.70;1.35;;;12.50;99.90;;;;;;4992694;28;20197;-78
2021/05/22 08:40:13;;;;;;;4.70;1.23;;;12.70;99.90;;;;;;5007892;28;20256;-78
2021/05/22 08:42:39;;;;;;;6.25;1.17;;;12.90;99.90;;;;;;4992872;28;20541;-78
2021/05/22 08:45:11;;;;;;;7.53;1.35;;;12.80;99.90;;;;;;4992702;28;20173;-78
2021/05/22 08:47:39;;;;;;;6.80;1.48;;;12.80;99.90;;;;;;4993132;28;20177;-78
2021/05/22 08:50:09;;;;;;;6.75;1.75;;;12.90;99.90;;;;;;4982222;28;20236;-78
2021/05/22 08:52:35;;;;;;;7.43;1.27;;;13.00;99.90;;;;;;4973529;28;20173;-78
2021/05/22 08:55:03;;;;;;;3.17;1.05;;;13.00;99.90;;;;;;4974044;28;20213;-77
2021/05/22 08:57:28;;;;;;;5.30;1.30;;;13.00;99.90;;;;;;4973753;28;20176;-78
2021/05/22 08:59:54;;;;;;;3.58;1.38;;;13.10;99.90;;;;;;4973455;28;20558;-81
2021/05/22 09:02:23;;;;;;;5.72;1.30;;;13.30;99.90;;;;;;4979268;28;20161;-81
2021/05/22 09:05:08;;;;;;;4.00;1.30;;;13.50;99.90;;;;;;4992547;28;20256;-82
2021/05/22 09:07:37;;;;;;;2.38;1.08;;;13.40;99.90;;;;;;4991468;28;20260;-81
2021/05/22 09:10:19;;;;;;;5.47;1.10;;;13.40;99.90;;;;;;4982093;28;20204;-84
2021/05/22 09:12:47;;;;;;;5.35;1.50;;;13.50;99.90;;;;;;4973312;28;20248;-83
2021/05/22 09:15:16;;;;;;;3.03;0.93;;;13.40;99.90;;;;;;4972084;28;20197;-83
2021/05/22 09:17:52;;;;;;;2.75;1.27;;;13.30;99.90;;;;;;4985975;28;20177;-82
2021/05/22 09:20:23;;;;;;;6.63;1.48;;;13.50;99.90;;;;;;4991761;28;20182;-81
2021/05/22 09:23:03;;;;;;;6.63;1.63;;;13.70;99.90;;;;;;4990581;28;20185;-81
2021/05/22 09:25:31;;;;;;;11.35;1.83;;;13.90;99.90;;;;;;4993114;28;20226;-81
2021/05/22 09:27:58;;;;;;;5.57;1.60;;;14.20;99.90;;;;;;4991582;28;20243;-79
2021/05/22 09:30:25;;;;;;;6.93;1.30;;;14.20;99.90;;;;;;4992508;28;20177;-77
2021/05/22 09:32:52;;;;;;;6.60;1.60;;;14.30;99.90;;;;;;4985138;28;20170;-78
2021/05/22 09:35:18;;;;;;;8.23;1.50;;;14.30;99.90;;;;;;4986927;28;20276;-79
2021/05/22 09:37:50;;;;;;;7.15;1.23;;;13.80;99.90;;;;;;4988417;28;20288;-78
2021/05/22 09:40:19;;;;;;;6.22;1.50;;;13.70;99.90;;;;;;4987917;28;20296;-77
2021/05/22 09:42:45;;;;;;;5.68;1.60;;;13.60;99.90;;;;;;4994350;28;20669;-78
2021/05/22 09:45:31;;;;;;;4.18;1.23;;;13.80;99.90;;;;;;4977105;28;20675;-80
2021/05/22 09:47:59;;;;;;;7.13;1.55;;;13.90;99.90;;;;;;4988882;28;20295;-80
2021/05/22 09:50:32;;;;;;;4.32;1.65;;;14.00;99.90;;;;;;4996935;28;20633;-80
2021/05/22 09:52:59;;;;;;;3.00;1.35;;;13.80;99.90;;;;;;4996622;28;20193;-81
2021/05/22 09:55:25;;;;;;;4.15;2.33;;;13.90;99.90;;;;;;4985773;28;20638;-78
2021/05/22 09:57:53;;;;;;;11.65;3.13;;;14.00;99.90;;;;;;4974722;28;20197;-81
2021/05/22 10:00:21;;;;;;;4.63;1.75;;;14.00;99.90;;;;;;4984696;28;20192;-78
2021/05/22 10:02:56;;;;;;;2.90;1.20;;;14.00;99.90;;;;;;5009751;28;20567;-79
2021/05/22 10:05:24;;;;;;;2.88;1.70;;;13.90;99.90;;;;;;4994716;28;20212;-78
2021/05/22 10:07:54;;;;;;;8.13;1.30;;;13.50;99.90;;;;;;4994785;28;20229;-78
2021/05/22 10:10:22;;;;;;;6.28;2.08;;;13.60;99.90;;;;;;4989878;28;20532;-78
2021/05/22 10:12:47;;;;;;;5.10;1.60;;;13.80;99.90;;;;;;4988338;28;20181;-78
2021/05/22 10:15:14;;;;;;;11.18;2.03;;;13.90;99.90;;;;;;4991076;28;20185;-78
2021/05/22 10:17:42;;;;;;;2.78;1.38;;;13.80;99.90;;;;;;4995175;28;20558;-78
2021/05/22 10:20:08;;;;;;;4.35;1.70;;;13.70;99.90;;;;;;4983981;28;20173;-78
2021/05/22 10:22:34;;;;;;;4.93;1.67;;;13.80;99.90;;;;;;4981339;28;20174;-77
2021/05/22 10:25:03;;;;;;;4.43;1.70;;;14.00;99.90;;;;;;4981295;28;20181;-79
2021/05/22 10:27:28;;;;;;;3.50;1.40;;;13.90;99.90;;;;;;4974699;28;20174;-77
2021/05/22 10:29:54;;;;;;;7.82;1.88;;;13.80;99.90;;;;;;4984150;28;20223;-80
2021/05/22 10:32:22;;;;;;;5.43;1.90;;;13.90;99.90;;;;;;4988964;28;20223;-77
2021/05/22 10:34:49;;;;;;;5.35;1.65;;;14.00;99.90;;;;;;4990040;28;20268;-82
2021/05/22 10:37:40;;;;;;;6.55;1.23;;;13.90;99.90;;;;;;4989703;28;20236;-79
2021/05/22 10:40:08;;;;;;;9.43;1.67;;;13.80;99.90;;;;;;4986584;28;20239;-77
2021/05/22 10:42:35;;;;;;;4.55;1.58;;;13.70;99.90;;;;;;4990410;28;20273;-82
2021/05/22 10:45:23;;;;;;;7.32;1.75;;;13.60;99.90;;;;;;5003525;28;20269;-78
2021/05/22 10:47:49;;;;;;;3.45;1.45;;;13.50;99.90;;;;;;5002326;28;20289;-84
2021/05/22 10:50:32;;;;;;;6.25;1.67;;;13.60;99.90;;;;;;4991527;28;20181;-83
2021/05/22 10:53:19;;;;;;;8.48;1.73;;;13.80;99.90;;;;;;4992051;28;20169;-81
2021/05/22 10:55:45;;;;;;;11.77;1.73;;;13.60;99.90;;;;;;4991864;28;20173;-79
2021/05/22 10:58:12;;;;;;;10.73;1.88;;;13.70;99.90;;;;;;4995277;28;20271;-82
2021/05/22 11:00:38;;;;;;;3.00;1.67;;;13.50;99.90;;;;;;4990270;28;20256;-79
2021/05/22 11:03:07;;;;;;;8.88;1.70;;;13.40;99.90;;;;;;4982929;28;20217;-79
2021/05/22 11:05:43;;;;;;;9.55;2.25;;;13.50;99.90;;;;;;4995156;28;20213;-80
2021/05/22 11:08:09;;;;;;;12.50;2.33;;;13.40;99.90;;;;;;4994690;28;20215;-79
2021/05/22 11:10:38;;;;;;;6.97;1.90;;;13.20;99.90;;;;;;4994980;28;20178;-79
2021/05/22 11:13:07;;;;;;;2.92;1.70;;;13.20;99.90;;;;;;4994682;28;20255;-79
2021/05/22 11:15:45;;;;;;;4.75;2.00;;;13.50;99.90;;;;;;4994539;28;20174;-79
2021/05/22 11:18:12;;;;;;;3.97;2.08;;;13.70;99.90;;;;;;4994624;28;20200;-79
2021/05/22 11:20:40;;;;;;;10.18;1.80;;;14.00;99.90;;;;;;4994853;28;20213;-79
2021/05/22 11:23:06;;;;;;;6.53;1.70;;;14.20;99.90;;;;;;4994680;28;20330;-79
2021/05/22 11:25:51;;;;;;;1.83;1.13;;;14.30;99.90;;;;;;5009355;28;20169;-80
2021/05/22 11:28:20;;;;;;;5.38;1.35;;;14.20;99.90;;;;;;4994005;28;20209;-79
2021/05/22 11:30:51;;;;;;;5.43;1.40;;;13.90;99.90;;;;;;4993496;28;20260;-79
2021/05/22 11:33:22;;;;;;;4.72;1.80;;;13.60;99.90;;;;;;4994656;28;20160;-79
2021/05/22 11:35:50;;;;;;;4.60;1.40;;;13.60;99.90;;;;;;4994821;28;20169;-84
2021/05/22 11:38:17;;;;;;;4.57;1.73;;;13.50;99.90;;;;;;4994710;28;20193;-80
2021/05/22 11:40:43;;;;;;;4.57;1.30;;;13.30;99.90;;;;;;4993613;28;20181;-81
2021/05/22 11:43:32;;;;;;;4.57;1.55;;;13.20;99.90;;;;;;4994673;28;20165;-81
2021/05/22 11:46:01;;;;;;;1.73;1.33;;;13.20;99.90;;;;;;4993232;28;20169;-81
2021/05/22 11:48:40;;;;;;;4.05;1.58;;;13.30;99.90;;;;;;4994404;28;20205;-80
2021/05/22 11:51:13;;;;;;;4.68;1.20;;;13.30;99.90;;;;;;4993952;28;20269;-81
2021/05/22 11:53:41;;;;;;;3.10;1.42;;;13.40;99.90;;;;;;4992857;28;20526;-80
2021/05/22 11:56:14;;;;;;;5.78;1.70;;;13.40;99.90;;;;;;4992854;28;20177;-80
2021/05/22 11:58:51;;;;;;;3.33;1.48;;;13.40;99.90;;;;;;4993463;28;20213;-81
2021/05/22 12:01:22;;;;;;;42.22;2.03;;;13.60;99.90;;;;;;4993170;28;20707;-84
2021/05/22 12:03:50;;;;;;;8.55;1.92;;;13.70;99.90;;;;;;4994348;28;20680;-86
2021/05/22 12:06:25;;;;;;;19.38;2.97;;;13.90;99.90;;;;;;4994176;28;20198;-85
2021/05/22 12:09:23;;;;;;;3.45;1.70;;;14.10;99.90;;;;;;4993639;28;20747;-79
2021/05/22 12:12:03;;;;;;;3.33;1.75;;;14.20;99.90;;;;;;4961013;28;20609;-79
2021/05/22 12:14:40;;;;;;;1.65;1.33;;;14.10;99.90;;;;;;4993835;28;20165;-79
2021/05/22 12:17:07;;;;;;;2.70;1.33;;;13.80;99.90;;;;;;4993764;28;20194;-79
2021/05/22 12:19:37;;;;;;;1.75;1.63;;;13.60;99.90;;;;;;4993439;28;20242;-79
2021/05/22 12:22:04;;;;;;;3.40;1.40;;;13.40;99.90;;;;;;4993316;28;20165;-79
2021/05/22 12:24:30;;;;;;;4.25;1.60;;;13.10;99.90;;;;;;4993406;28;20672;-79
2021/05/22 12:26:56;;;;;;;1.70;1.52;;;13.00;99.90;;;;;;4994131;28;20180;-80
2021/05/22 12:29:29;;;;;;;2.45;0.93;;;13.00;99.90;;;;;;4993576;28;20209;-79
2021/05/22 12:32:05;;;;;;;8.07;1.10;;;12.90;99.90;;;;;;4993422;28;20648;-77
2021/05/22 12:34:32;;;;;;;1.00;0.90;;;12.80;99.90;;;;;;4999212;28;20259;-78
2021/05/22 12:37:03;;;;;;;1.90;1.00;;;12.50;99.90;;;;;;4996789;28;20240;-78
2021/05/22 12:39:33;;;;;;;1.42;0.70;;;12.50;99.90;;;;;;4999673;28;20252;-79
2021/05/22 12:41:59;;;;;;;2.45;0.80;;;12.30;99.90;;;;;;4995958;28;20173;-78
2021/05/22 12:44:24;;;;;;;1.08;0.80;;;12.20;99.90;;;;;;4994006;28;20244;-78
2021/05/22 12:47:08;;;;;;;0.80;0.70;;;12.20;99.90;;;;;;4994159;28;20197;-77
2021/05/22 12:49:34;;;;;;;1.38;0.60;;;12.00;99.90;;;;;;4993305;28;20220;-77